This is the latest recevied weather packets stored in our database for station/object W8BS. If no packets are shown the sender has not sent any weather packets the latest 10 day(s).
| Time | Temp. | Humidity | Pressure | Rain* | Wind** | Luminosity | Snow |
|---|---|---|---|---|---|---|---|
| 1778100610 | 11.11° C | 99% | 1010.3 hPa | 1.27 mm | - | 71 W/m² | - |
| 1778100308 | 11.11° C | 99% | 1010 hPa | 0 mm | - | 67 W/m² | - |
| 1778100005 | 11.11° C | 99% | 1010.3 hPa | 1.78 mm | - | 69 W/m² | - |
| 1778099703 | 11.67° C | 99% | 1010.6 hPa | 4.83 mm | - | 54 W/m² | - |
| 1778099399 | 11.67° C | 99% | 1010.4 hPa | 3.05 mm | - | 62 W/m² | - |
| 1778099097 | 11.67° C | 99% | 1010.1 hPa | 0 mm | - | 33 W/m² | - |
| 1778098792 | 11.67° C | 99% | 1010 hPa | 0 mm | - | 43 W/m² | - |
| 1778098490 | 11.67° C | 99% | 1010 hPa | 0 mm | - | 63 W/m² | - |
| 1778098187 | 11.67° C | 99% | 1009.8 hPa | 0 mm | - | 130 W/m² | - |
| 1778097883 | 11.67° C | 99% | 1009.9 hPa | 1.27 mm | - | 93 W/m² | - |
| 1778097579 | 11.67° C | 99% | 1009.8 hPa | 1.27 mm | - | 76 W/m² | - |
| 1778097277 | 12.22° C | 99% | 1009.8 hPa | 1.78 mm | - | 136 W/m² | - |
| 1778096973 | 12.22° C | 99% | 1010 hPa | 1.27 mm | - | 103 W/m² | - |
| 1778096671 | 12.22° C | 99% | 1009.7 hPa | 1.27 mm | - | 46 W/m² | - |
| 1778096367 | 12.22° C | 99% | 1009.6 hPa | 0 mm | - | 67 W/m² | - |
| 1778096065 | 12.22° C | 99% | 1010 hPa | 1.78 mm | - | 60 W/m² | - |
| 1778095761 | 12.22° C | 99% | 1009.6 hPa | 1.78 mm | - | 52 W/m² | - |
| 1778095458 | 12.78° C | 99% | 1009.6 hPa | 0 mm | - | 72 W/m² | - |
| 1778095155 | 12.78° C | 99% | 1009.7 hPa | 0 mm | - | 68 W/m² | - |
| 1778094851 | 12.78° C | 99% | 1009.5 hPa | 1.78 mm | - | 63 W/m² | - |
| 1778094548 | 12.78° C | 99% | 1009.3 hPa | 0 mm | - | 59 W/m² | - |
| 1778094244 | 13.33° C | 99% | 1009.2 hPa | 0 mm | - | 94 W/m² | - |
| 1778093941 | 13.33° C | 99% | 1009.3 hPa | 0 mm | - | 52 W/m² | - |
| 1778093639 | 13.33° C | 99% | 1009.7 hPa | 0 mm | - | 54 W/m² | - |
| 1778093336 | 13.89° C | 99% | 1009.3 hPa | 0 mm | - | 72 W/m² | - |
* Rain latest hour (hover to see other rain measurements)
** Current wind speed in m/s (hover to see current wind gust speed)